sensor_id;sensor_type;location;lat;lon;timestamp;temperature;humidity
43524;DHT22;29120;52.006;6.020;2023-02-28T00:00:24;3.00;81.80
43524;DHT22;29120;52.006;6.020;2023-02-28T00:02:49;3.00;81.80
43524;DHT22;29120;52.006;6.020;2023-02-28T00:05:16;3.10;81.80
43524;DHT22;29120;52.006;6.020;2023-02-28T00:07:42;3.20;81.80
43524;DHT22;29120;52.006;6.020;2023-02-28T00:10:09;3.20;81.80
43524;DHT22;29120;52.006;6.020;2023-02-28T00:12:35;3.20;81.80
43524;DHT22;29120;52.006;6.020;2023-02-28T00:15:01;3.30;81.90
43524;DHT22;29120;52.006;6.020;2023-02-28T00:17:26;3.40;81.90
43524;DHT22;29120;52.006;6.020;2023-02-28T00:19:52;3.40;81.90
43524;DHT22;29120;52.006;6.020;2023-02-28T00:22:18;3.40;82.00
43524;DHT22;29120;52.006;6.020;2023-02-28T00:24:44;3.40;82.00
43524;DHT22;29120;52.006;6.020;2023-02-28T00:27:10;3.40;82.10
43524;DHT22;29120;52.006;6.020;2023-02-28T00:29:35;3.50;82.30
43524;DHT22;29120;52.006;6.020;2023-02-28T00:32:01;3.50;82.20
43524;DHT22;29120;52.006;6.020;2023-02-28T00:34:26;3.50;82.20
43524;DHT22;29120;52.006;6.020;2023-02-28T00:36:52;3.50;82.20
43524;DHT22;29120;52.006;6.020;2023-02-28T00:39:17;3.60;82.20
43524;DHT22;29120;52.006;6.020;2023-02-28T00:41:43;3.60;82.10
43524;DHT22;29120;52.006;6.020;2023-02-28T00:44:08;3.60;82.10
43524;DHT22;29120;52.006;6.020;2023-02-28T00:46:34;3.70;82.10
43524;DHT22;29120;52.006;6.020;2023-02-28T00:48:59;3.70;82.10
43524;DHT22;29120;52.006;6.020;2023-02-28T00:51:25;3.70;82.10
43524;DHT22;29120;52.006;6.020;2023-02-28T00:53:50;3.70;82.00
43524;DHT22;29120;52.006;6.020;2023-02-28T00:56:16;3.80;82.10
43524;DHT22;29120;52.006;6.020;2023-02-28T00:58:41;3.80;82.00
43524;DHT22;29120;52.006;6.020;2023-02-28T01:01:07;3.80;81.90
43524;DHT22;29120;52.006;6.020;2023-02-28T01:03:32;3.90;82.00
43524;DHT22;29120;52.006;6.020;2023-02-28T01:05:58;3.80;81.90
43524;DHT22;29120;52.006;6.020;2023-02-28T01:08:24;3.90;82.00
43524;DHT22;29120;52.006;6.020;2023-02-28T01:10:49;3.90;82.00
43524;DHT22;29120;52.006;6.020;2023-02-28T01:13:15;3.90;82.00
43524;DHT22;29120;52.006;6.020;2023-02-28T01:15:41;3.90;82.00
43524;DHT22;29120;52.006;6.020;2023-02-28T01:18:08;3.90;82.00
43524;DHT22;29120;52.006;6.020;2023-02-28T01:20:35;3.90;82.00
43524;DHT22;29120;52.006;6.020;2023-02-28T01:23:01;3.90;82.10
43524;DHT22;29120;52.006;6.020;2023-02-28T01:25:26;3.90;82.10
43524;DHT22;29120;52.006;6.020;2023-02-28T01:27:52;3.90;82.10
43524;DHT22;29120;52.006;6.020;2023-02-28T01:30:17;3.90;82.10
43524;DHT22;29120;52.006;6.020;2023-02-28T01:32:43;3.90;82.10
43524;DHT22;29120;52.006;6.020;2023-02-28T01:35:08;3.90;82.20
43524;DHT22;29120;52.006;6.020;2023-02-28T01:37:34;3.90;82.10
43524;DHT22;29120;52.006;6.020;2023-02-28T01:39:59;3.90;82.20
43524;DHT22;29120;52.006;6.020;2023-02-28T01:42:25;3.90;82.30
43524;DHT22;29120;52.006;6.020;2023-02-28T01:44:55;3.90;82.40
43524;DHT22;29120;52.006;6.020;2023-02-28T01:47:20;3.90;82.40
43524;DHT22;29120;52.006;6.020;2023-02-28T01:49:46;3.90;82.40
43524;DHT22;29120;52.006;6.020;2023-02-28T01:52:12;3.90;82.50
43524;DHT22;29120;52.006;6.020;2023-02-28T01:54:43;3.90;82.60
43524;DHT22;29120;52.006;6.020;2023-02-28T01:57:12;3.90;82.70
43524;DHT22;29120;52.006;6.020;2023-02-28T01:59:41;3.90;82.80
43524;DHT22;29120;52.006;6.020;2023-02-28T02:02:16;3.90;82.80
43524;DHT22;29120;52.006;6.020;2023-02-28T02:04:56;4.00;82.90
43524;DHT22;29120;52.006;6.020;2023-02-28T02:07:23;3.90;82.90
43524;DHT22;29120;52.006;6.020;2023-02-28T02:10:01;3.90;83.00
43524;DHT22;29120;52.006;6.020;2023-02-28T02:12:47;3.90;83.00
43524;DHT22;29120;52.006;6.020;2023-02-28T02:15:18;3.90;83.10
43524;DHT22;29120;52.006;6.020;2023-02-28T02:17:47;3.80;83.10
43524;DHT22;29120;52.006;6.020;2023-02-28T02:35:56;3.70;83.50
43524;DHT22;29120;52.006;6.020;2023-02-28T02:38:28;3.70;83.50
43524;DHT22;29120;52.006;6.020;2023-02-28T02:45:59;3.70;83.60
43524;DHT22;29120;52.006;6.020;2023-02-28T02:48:29;3.70;83.70
43524;DHT22;29120;52.006;6.020;2023-02-28T02:50:57;3.70;83.80
43524;DHT22;29120;52.006;6.020;2023-02-28T02:53:28;3.70;83.80
43524;DHT22;29120;52.006;6.020;2023-02-28T02:55:55;3.70;83.90
43524;DHT22;29120;52.006;6.020;2023-02-28T02:58:22;3.70;84.00
43524;DHT22;29120;52.006;6.020;2023-02-28T03:00:53;3.70;84.00
43524;DHT22;29120;52.006;6.020;2023-02-28T03:03:19;3.70;84.10
43524;DHT22;29120;52.006;6.020;2023-02-28T03:05:54;3.70;84.00
43524;DHT22;29120;52.006;6.020;2023-02-28T03:08:20;3.70;84.00
43524;DHT22;29120;52.006;6.020;2023-02-28T03:10:46;3.70;84.10
43524;DHT22;29120;52.006;6.020;2023-02-28T03:16:08;3.70;84.10
43524;DHT22;29120;52.006;6.020;2023-02-28T03:18:45;3.60;84.00
43524;DHT22;29120;52.006;6.020;2023-02-28T03:21:17;3.60;84.00
43524;DHT22;29120;52.006;6.020;2023-02-28T03:23:48;3.60;84.10
43524;DHT22;29120;52.006;6.020;2023-02-28T03:26:23;3.60;84.20
43524;DHT22;29120;52.006;6.020;2023-02-28T03:29:01;3.60;84.20
43524;DHT22;29120;52.006;6.020;2023-02-28T03:31:30;3.60;84.20
43524;DHT22;29120;52.006;6.020;2023-02-28T03:34:01;3.60;84.20
43524;DHT22;29120;52.006;6.020;2023-02-28T03:36:30;3.60;84.20
43524;DHT22;29120;52.006;6.020;2023-02-28T03:39:07;3.60;84.30
43524;DHT22;29120;52.006;6.020;2023-02-28T03:41:47;3.60;84.20
43524;DHT22;29120;52.006;6.020;2023-02-28T03:44:20;3.50;84.10
43524;DHT22;29120;52.006;6.020;2023-02-28T03:46:52;3.50;84.10
43524;DHT22;29120;52.006;6.020;2023-02-28T03:49:20;3.50;84.10
43524;DHT22;29120;52.006;6.020;2023-02-28T03:51:47;3.50;84.10
43524;DHT22;29120;52.006;6.020;2023-02-28T03:54:23;3.50;84.00
43524;DHT22;29120;52.006;6.020;2023-02-28T03:59:35;3.50;83.80
43524;DHT22;29120;52.006;6.020;2023-02-28T04:02:02;3.60;83.70
43524;DHT22;29120;52.006;6.020;2023-02-28T04:04:28;3.60;83.60
43524;DHT22;29120;52.006;6.020;2023-02-28T04:07:00;3.60;83.60
43524;DHT22;29120;52.006;6.020;2023-02-28T04:09:26;3.60;83.50
43524;DHT22;29120;52.006;6.020;2023-02-28T04:11:53;3.60;83.40
43524;DHT22;29120;52.006;6.020;2023-02-28T04:14:18;3.60;83.20
43524;DHT22;29120;52.006;6.020;2023-02-28T04:16:44;3.60;83.20
43524;DHT22;29120;52.006;6.020;2023-02-28T04:19:10;3.60;83.10
43524;DHT22;29120;52.006;6.020;2023-02-28T04:21:37;3.60;83.10
43524;DHT22;29120;52.006;6.020;2023-02-28T04:24:04;3.60;83.10
43524;DHT22;29120;52.006;6.020;2023-02-28T04:26:33;3.60;83.10
43524;DHT22;29120;52.006;6.020;2023-02-28T04:28:59;3.60;83.00
43524;DHT22;29120;52.006;6.020;2023-02-28T04:31:25;3.60;83.00
43524;DHT22;29120;52.006;6.020;2023-02-28T04:33:51;3.60;83.00
43524;DHT22;29120;52.006;6.020;2023-02-28T04:36:16;3.50;82.90
43524;DHT22;29120;52.006;6.020;2023-02-28T04:38:43;3.50;83.00
43524;DHT22;29120;52.006;6.020;2023-02-28T04:41:08;3.50;83.00
43524;DHT22;29120;52.006;6.020;2023-02-28T04:43:34;3.50;83.00
43524;DHT22;29120;52.006;6.020;2023-02-28T04:46:00;3.50;83.00
43524;DHT22;29120;52.006;6.020;2023-02-28T04:48:30;3.50;83.10
43524;DHT22;29120;52.006;6.020;2023-02-28T04:50:59;3.40;83.10
43524;DHT22;29120;52.006;6.020;2023-02-28T04:53:25;3.40;83.10
43524;DHT22;29120;52.006;6.020;2023-02-28T04:55:50;3.40;83.00
43524;DHT22;29120;52.006;6.020;2023-02-28T04:58:16;3.40;83.10
43524;DHT22;29120;52.006;6.020;2023-02-28T05:00:42;3.30;83.10
43524;DHT22;29120;52.006;6.020;2023-02-28T05:03:07;3.30;83.20
43524;DHT22;29120;52.006;6.020;2023-02-28T05:05:33;3.30;83.20
43524;DHT22;29120;52.006;6.020;2023-02-28T05:07:58;3.30;83.30
43524;DHT22;29120;52.006;6.020;2023-02-28T05:10:24;3.20;83.30
43524;DHT22;29120;52.006;6.020;2023-02-28T05:12:49;3.30;83.40
43524;DHT22;29120;52.006;6.020;2023-02-28T05:15:15;3.20;83.40
43524;DHT22;29120;52.006;6.020;2023-02-28T05:17:41;3.20;83.40
43524;DHT22;29120;52.006;6.020;2023-02-28T05:20:07;3.20;83.50
43524;DHT22;29120;52.006;6.020;2023-02-28T05:22:36;3.20;83.50
43524;DHT22;29120;52.006;6.020;2023-02-28T05:25:02;3.20;83.60
43524;DHT22;29120;52.006;6.020;2023-02-28T05:27:28;3.20;83.60
43524;DHT22;29120;52.006;6.020;2023-02-28T05:29:53;3.20;83.60
43524;DHT22;29120;52.006;6.020;2023-02-28T05:32:19;3.20;83.60
43524;DHT22;29120;52.006;6.020;2023-02-28T05:34:44;3.20;83.60
43524;DHT22;29120;52.006;6.020;2023-02-28T05:37:13;3.20;83.60
43524;DHT22;29120;52.006;6.020;2023-02-28T05:39:39;3.20;83.70
43524;DHT22;29120;52.006;6.020;2023-02-28T05:42:05;3.20;83.70
43524;DHT22;29120;52.006;6.020;2023-02-28T05:44:30;3.20;83.80
43524;DHT22;29120;52.006;6.020;2023-02-28T05:46:56;3.20;83.80
43524;DHT22;29120;52.006;6.020;2023-02-28T05:49:21;3.20;83.90
43524;DHT22;29120;52.006;6.020;2023-02-28T05:51:47;3.20;83.90
43524;DHT22;29120;52.006;6.020;2023-02-28T05:54:12;3.20;83.90
43524;DHT22;29120;52.006;6.020;2023-02-28T05:56:38;3.20;83.80
43524;DHT22;29120;52.006;6.020;2023-02-28T05:59:05;3.20;83.90
43524;DHT22;29120;52.006;6.020;2023-02-28T06:01:34;3.20;83.90
43524;DHT22;29120;52.006;6.020;2023-02-28T06:04:01;3.20;84.00
43524;DHT22;29120;52.006;6.020;2023-02-28T06:06:26;3.20;83.90
43524;DHT22;29120;52.006;6.020;2023-02-28T06:08:52;3.20;83.90
43524;DHT22;29120;52.006;6.020;2023-02-28T06:11:17;3.20;84.00
43524;DHT22;29120;52.006;6.020;2023-02-28T06:13:45;3.20;84.00
43524;DHT22;29120;52.006;6.020;2023-02-28T06:16:10;3.20;84.00
43524;DHT22;29120;52.006;6.020;2023-02-28T06:18:36;3.20;84.10
43524;DHT22;29120;52.006;6.020;2023-02-28T06:21:02;3.20;84.20
43524;DHT22;29120;52.006;6.020;2023-02-28T06:23:27;3.20;84.20
43524;DHT22;29120;52.006;6.020;2023-02-28T06:25:53;3.20;84.20
43524;DHT22;29120;52.006;6.020;2023-02-28T06:28:21;3.20;84.30
43524;DHT22;29120;52.006;6.020;2023-02-28T06:30:46;3.20;84.30
43524;DHT22;29120;52.006;6.020;2023-02-28T06:33:12;3.20;84.30
43524;DHT22;29120;52.006;6.020;2023-02-28T06:35:37;3.20;84.30
43524;DHT22;29120;52.006;6.020;2023-02-28T06:38:03;3.20;84.40
43524;DHT22;29120;52.006;6.020;2023-02-28T06:40:29;3.20;84.40
43524;DHT22;29120;52.006;6.020;2023-02-28T06:42:57;3.20;84.30
43524;DHT22;29120;52.006;6.020;2023-02-28T06:45:22;3.20;84.20
43524;DHT22;29120;52.006;6.020;2023-02-28T06:47:47;3.10;84.10
43524;DHT22;29120;52.006;6.020;2023-02-28T06:50:17;3.10;84.10
43524;DHT22;29120;52.006;6.020;2023-02-28T06:52:45;3.20;84.20
43524;DHT22;29120;52.006;6.020;2023-02-28T06:55:11;3.20;84.20
43524;DHT22;29120;52.006;6.020;2023-02-28T06:57:36;3.10;84.20
43524;DHT22;29120;52.006;6.020;2023-02-28T07:00:06;3.10;84.10
43524;DHT22;29120;52.006;6.020;2023-02-28T07:02:33;3.10;84.10
43524;DHT22;29120;52.006;6.020;2023-02-28T07:04:58;3.20;84.10
43524;DHT22;29120;52.006;6.020;2023-02-28T07:07:24;3.20;84.10
43524;DHT22;29120;52.006;6.020;2023-02-28T07:09:49;3.10;84.00
43524;DHT22;29120;52.006;6.020;2023-02-28T07:12:14;3.20;84.00
43524;DHT22;29120;52.006;6.020;2023-02-28T07:14:40;3.20;83.90
43524;DHT22;29120;52.006;6.020;2023-02-28T07:17:09;3.20;83.90
43524;DHT22;29120;52.006;6.020;2023-02-28T07:19:36;3.30;83.90
43524;DHT22;29120;52.006;6.020;2023-02-28T07:22:01;3.30;84.30
43524;DHT22;29120;52.006;6.020;2023-02-28T07:24:28;3.40;83.60
43524;DHT22;29120;52.006;6.020;2023-02-28T07:26:54;3.50;83.50
43524;DHT22;29120;52.006;6.020;2023-02-28T07:29:20;3.50;83.30
43524;DHT22;29120;52.006;6.020;2023-02-28T07:31:45;3.60;83.10
43524;DHT22;29120;52.006;6.020;2023-02-28T07:34:12;3.70;83.00
43524;DHT22;29120;52.006;6.020;2023-02-28T07:36:37;3.70;82.80
43524;DHT22;29120;52.006;6.020;2023-02-28T07:39:03;3.80;82.70
43524;DHT22;29120;52.006;6.020;2023-02-28T07:41:29;3.90;82.60
43524;DHT22;29120;52.006;6.020;2023-02-28T07:43:55;4.00;82.40
43524;DHT22;29120;52.006;6.020;2023-02-28T07:46:22;4.00;82.20
43524;DHT22;29120;52.006;6.020;2023-02-28T07:48:48;4.20;82.10
43524;DHT22;29120;52.006;6.020;2023-02-28T07:51:14;4.30;81.80
43524;DHT22;29120;52.006;6.020;2023-02-28T07:53:39;4.40;81.30
43524;DHT22;29120;52.006;6.020;2023-02-28T07:56:05;4.50;80.80
43524;DHT22;29120;52.006;6.020;2023-02-28T07:58:30;4.60;80.70
43524;DHT22;29120;52.006;6.020;2023-02-28T08:00:56;4.60;80.50
43524;DHT22;29120;52.006;6.020;2023-02-28T08:03:22;4.60;80.50
43524;DHT22;29120;52.006;6.020;2023-02-28T08:05:48;4.70;80.50
43524;DHT22;29120;52.006;6.020;2023-02-28T08:08:14;4.90;80.30
43524;DHT22;29120;52.006;6.020;2023-02-28T08:10:40;4.90;79.60
43524;DHT22;29120;52.006;6.020;2023-02-28T08:13:06;4.80;77.50
43524;DHT22;29120;52.006;6.020;2023-02-28T08:15:31;4.70;71.70
43524;DHT22;29120;52.006;6.020;2023-02-28T08:17:57;4.50;72.00
43524;DHT22;29120;52.006;6.020;2023-02-28T08:20:23;4.50;72.00
43524;DHT22;29120;52.006;6.020;2023-02-28T08:22:48;5.00;71.70
43524;DHT22;29120;52.006;6.020;2023-02-28T08:25:14;5.80;68.90
43524;DHT22;29120;52.006;6.020;2023-02-28T08:27:40;6.40;66.10
43524;DHT22;29120;52.006;6.020;2023-02-28T08:30:05;7.20;64.50
43524;DHT22;29120;52.006;6.020;2023-02-28T08:32:32;8.10;61.30
43524;DHT22;29120;52.006;6.020;2023-02-28T08:34:57;8.70;59.40
43524;DHT22;29120;52.006;6.020;2023-02-28T08:37:23;9.00;57.90
43524;DHT22;29120;52.006;6.020;2023-02-28T08:39:48;8.80;57.30
43524;DHT22;29120;52.006;6.020;2023-02-28T08:42:14;8.60;57.40
43524;DHT22;29120;52.006;6.020;2023-02-28T08:44:39;8.20;57.10
43524;DHT22;29120;52.006;6.020;2023-02-28T08:47:05;8.10;58.80
43524;DHT22;29120;52.006;6.020;2023-02-28T08:49:31;8.80;57.80
43524;DHT22;29120;52.006;6.020;2023-02-28T08:51:57;9.40;56.40
43524;DHT22;29120;52.006;6.020;2023-02-28T08:54:23;10.20;56.50
43524;DHT22;29120;52.006;6.020;2023-02-28T08:56:48;11.30;53.50
43524;DHT22;29120;52.006;6.020;2023-02-28T08:59:14;12.30;52.00
43524;DHT22;29120;52.006;6.020;2023-02-28T09:01:39;13.20;50.80
43524;DHT22;29120;52.006;6.020;2023-02-28T09:04:06;13.80;49.60
43524;DHT22;29120;52.006;6.020;2023-02-28T09:06:33;14.90;49.30
43524;DHT22;29120;52.006;6.020;2023-02-28T09:08:59;15.70;48.00
43524;DHT22;29120;52.006;6.020;2023-02-28T09:11:26;16.30;45.30
43524;DHT22;29120;52.006;6.020;2023-02-28T09:13:51;17.00;44.20
43524;DHT22;29120;52.006;6.020;2023-02-28T09:16:17;17.20;41.90
43524;DHT22;29120;52.006;6.020;2023-02-28T09:18:43;17.30;38.90
43524;DHT22;29120;52.006;6.020;2023-02-28T09:21:10;17.50;38.80
43524;DHT22;29120;52.006;6.020;2023-02-28T09:23:37;17.10;37.90
43524;DHT22;29120;52.006;6.020;2023-02-28T09:26:03;15.90;38.00
43524;DHT22;29120;52.006;6.020;2023-02-28T09:28:29;15.50;39.70
43524;DHT22;29120;52.006;6.020;2023-02-28T09:30:54;16.00;39.50
43524;DHT22;29120;52.006;6.020;2023-02-28T09:33:20;16.30;39.10
43524;DHT22;29120;52.006;6.020;2023-02-28T09:35:46;16.30;37.50
43524;DHT22;29120;52.006;6.020;2023-02-28T09:38:12;16.90;38.10
43524;DHT22;29120;52.006;6.020;2023-02-28T09:40:48;17.90;38.80
43524;DHT22;29120;52.006;6.020;2023-02-28T09:43:15;18.50;37.70
43524;DHT22;29120;52.006;6.020;2023-02-28T09:45:43;18.40;36.80
43524;DHT22;29120;52.006;6.020;2023-02-28T09:48:18;18.30;37.30
43524;DHT22;29120;52.006;6.020;2023-02-28T09:50:51;18.20;38.40
43524;DHT22;29120;52.006;6.020;2023-02-28T09:53:28;18.30;38.00
43524;DHT22;29120;52.006;6.020;2023-02-28T09:56:01;18.60;37.60
43524;DHT22;29120;52.006;6.020;2023-02-28T09:58:47;18.70;37.40
43524;DHT22;29120;52.006;6.020;2023-02-28T10:03:55;19.10;35.90
43524;DHT22;29120;52.006;6.020;2023-02-28T10:06:23;17.70;35.80
43524;DHT22;29120;52.006;6.020;2023-02-28T10:09:02;15.90;36.90
43524;DHT22;29120;52.006;6.020;2023-02-28T10:11:28;14.50;37.60
43524;DHT22;29120;52.006;6.020;2023-02-28T10:14:02;13.70;39.30
43524;DHT22;29120;52.006;6.020;2023-02-28T10:16:34;12.90;40.40
43524;DHT22;29120;52.006;6.020;2023-02-28T10:21:36;11.40;41.60
43524;DHT22;29120;52.006;6.020;2023-02-28T10:24:05;10.90;42.40
43524;DHT22;29120;52.006;6.020;2023-02-28T10:26:36;10.70;42.50
43524;DHT22;29120;52.006;6.020;2023-02-28T10:29:02;10.40;42.90
43524;DHT22;29120;52.006;6.020;2023-02-28T10:31:28;10.30;43.30
43524;DHT22;29120;52.006;6.020;2023-02-28T10:33:53;10.20;43.40
43524;DHT22;29120;52.006;6.020;2023-02-28T10:36:23;10.00;43.90
43524;DHT22;29120;52.006;6.020;2023-02-28T10:38:48;9.60;43.90
43524;DHT22;29120;52.006;6.020;2023-02-28T10:41:16;9.20;44.60
43524;DHT22;29120;52.006;6.020;2023-02-28T10:43:42;9.10;45.40
43524;DHT22;29120;52.006;6.020;2023-02-28T10:48:38;9.40;44.40
43524;DHT22;29120;52.006;6.020;2023-02-28T10:51:04;9.40;44.10
43524;DHT22;29120;52.006;6.020;2023-02-28T10:53:32;10.20;45.00
43524;DHT22;29120;52.006;6.020;2023-02-28T11:01:18;15.50;40.30
43524;DHT22;29120;52.006;6.020;2023-02-28T11:03:43;16.30;38.70
43524;DHT22;29120;52.006;6.020;2023-02-28T11:06:23;17.00;38.10
43524;DHT22;29120;52.006;6.020;2023-02-28T11:09:38;17.70;37.80
43524;DHT22;29120;52.006;6.020;2023-02-28T11:11:42;18.40;36.40
43524;DHT22;29120;52.006;6.020;2023-02-28T11:14:15;19.20;36.90
43524;DHT22;29120;52.006;6.020;2023-02-28T11:16:42;20.30;36.20
43524;DHT22;29120;52.006;6.020;2023-02-28T11:19:14;20.70;35.20
43524;DHT22;29120;52.006;6.020;2023-02-28T11:21:45;20.90;34.00
43524;DHT22;29120;52.006;6.020;2023-02-28T11:26:39;20.30;33.70
43524;DHT22;29120;52.006;6.020;2023-02-28T11:29:19;20.50;33.80
43524;DHT22;29120;52.006;6.020;2023-02-28T11:32:30;21.30;34.20
43524;DHT22;29120;52.006;6.020;2023-02-28T11:34:31;21.50;33.50
43524;DHT22;29120;52.006;6.020;2023-02-28T11:36:58;21.60;33.60
43524;DHT22;29120;52.006;6.020;2023-02-28T11:39:24;21.90;33.80
43524;DHT22;29120;52.006;6.020;2023-02-28T11:44:38;21.60;33.20
43524;DHT22;29120;52.006;6.020;2023-02-28T11:47:15;21.40;32.70
43524;DHT22;29120;52.006;6.020;2023-02-28T11:57:38;20.80;32.10
43524;DHT22;29120;52.006;6.020;2023-02-28T12:00:08;20.40;31.60
43524;DHT22;29120;52.006;6.020;2023-02-28T12:02:44;20.50;32.30
43524;DHT22;29120;52.006;6.020;2023-02-28T12:08:18;20.80;32.30
43524;DHT22;29120;52.006;6.020;2023-02-28T12:10:37;21.00;32.00
43524;DHT22;29120;52.006;6.020;2023-02-28T12:15:45;21.40;32.30
43524;DHT22;29120;52.006;6.020;2023-02-28T12:18:18;21.80;32.00
43524;DHT22;29120;52.006;6.020;2023-02-28T12:26:34;21.80;31.30
43524;DHT22;29120;52.006;6.020;2023-02-28T12:29:22;22.40;31.70
43524;DHT22;29120;52.006;6.020;2023-02-28T12:31:50;22.50;31.20
43524;DHT22;29120;52.006;6.020;2023-02-28T12:34:19;22.00;30.40
43524;DHT22;29120;52.006;6.020;2023-02-28T12:36:46;22.00;30.80
43524;DHT22;29120;52.006;6.020;2023-02-28T12:39:17;21.70;30.60
43524;DHT22;29120;52.006;6.020;2023-02-28T12:41:54;21.50;31.30
43524;DHT22;29120;52.006;6.020;2023-02-28T12:44:29;21.70;31.00
43524;DHT22;29120;52.006;6.020;2023-02-28T12:46:57;21.60;30.80
43524;DHT22;29120;52.006;6.020;2023-02-28T12:51:49;21.10;30.70
43524;DHT22;29120;52.006;6.020;2023-02-28T12:56:56;21.10;31.70
43524;DHT22;29120;52.006;6.020;2023-02-28T12:59:35;21.20;31.50
43524;DHT22;29120;52.006;6.020;2023-02-28T13:04:53;21.20;31.10
43524;DHT22;29120;52.006;6.020;2023-02-28T13:10:06;20.90;31.00
43524;DHT22;29120;52.006;6.020;2023-02-28T13:12:33;20.70;31.00
43524;DHT22;29120;52.006;6.020;2023-02-28T13:15:08;20.60;30.90
43524;DHT22;29120;52.006;6.020;2023-02-28T13:17:41;20.50;31.10
43524;DHT22;29120;52.006;6.020;2023-02-28T13:20:17;20.60;31.80
43524;DHT22;29120;52.006;6.020;2023-02-28T13:22:49;20.70;31.70
43524;DHT22;29120;52.006;6.020;2023-02-28T13:27:47;20.40;31.30
43524;DHT22;29120;52.006;6.020;2023-02-28T13:35:52;20.50;31.60
43524;DHT22;29120;52.006;6.020;2023-02-28T13:38:32;20.40;30.90
43524;DHT22;29120;52.006;6.020;2023-02-28T13:41:29;20.20;30.30
43524;DHT22;29120;52.006;6.020;2023-02-28T13:44:06;20.20;31.10
43524;DHT22;29120;52.006;6.020;2023-02-28T13:46:30;20.40;31.70
43524;DHT22;29120;52.006;6.020;2023-02-28T13:48:55;20.40;31.80
43524;DHT22;29120;52.006;6.020;2023-02-28T13:51:28;20.30;32.20
43524;DHT22;29120;52.006;6.020;2023-02-28T13:54:03;20.20;32.40
43524;DHT22;29120;52.006;6.020;2023-02-28T13:57:15;20.10;31.70
43524;DHT22;29120;52.006;6.020;2023-02-28T13:59:23;19.70;31.20
43524;DHT22;29120;52.006;6.020;2023-02-28T14:01:55;19.40;31.70
43524;DHT22;29120;52.006;6.020;2023-02-28T14:07:08;19.00;33.00
43524;DHT22;29120;52.006;6.020;2023-02-28T14:09:37;17.90;33.00
43524;DHT22;29120;52.006;6.020;2023-02-28T14:17:14;16.00;35.50
43524;DHT22;29120;52.006;6.020;2023-02-28T14:19:40;15.50;36.20
43524;DHT22;29120;52.006;6.020;2023-02-28T14:27:14;14.60;37.60
43524;DHT22;29120;52.006;6.020;2023-02-28T14:32:37;13.90;37.90
43524;DHT22;29120;52.006;6.020;2023-02-28T14:37:37;13.70;38.50
43524;DHT22;29120;52.006;6.020;2023-02-28T14:40:03;13.60;38.20
43524;DHT22;29120;52.006;6.020;2023-02-28T14:42:36;13.60;38.20
43524;DHT22;29120;52.006;6.020;2023-02-28T14:45:03;13.60;38.40
43524;DHT22;29120;52.006;6.020;2023-02-28T14:47:32;13.50;38.60
43524;DHT22;29120;52.006;6.020;2023-02-28T14:49:59;13.30;38.90
43524;DHT22;29120;52.006;6.020;2023-02-28T14:52:28;13.20;39.00
43524;DHT22;29120;52.006;6.020;2023-02-28T14:54:55;13.20;39.10
43524;DHT22;29120;52.006;6.020;2023-02-28T14:57:26;13.40;39.20
43524;DHT22;29120;52.006;6.020;2023-02-28T15:02:29;13.40;38.60
43524;DHT22;29120;52.006;6.020;2023-02-28T15:04:55;13.40;38.50
43524;DHT22;29120;52.006;6.020;2023-02-28T15:07:21;13.70;38.60
43524;DHT22;29120;52.006;6.020;2023-02-28T15:15:17;14.40;38.40
43524;DHT22;29120;52.006;6.020;2023-02-28T15:17:46;14.50;38.10
43524;DHT22;29120;52.006;6.020;2023-02-28T15:20:12;14.30;37.10
43524;DHT22;29120;52.006;6.020;2023-02-28T15:22:38;14.20;37.60
43524;DHT22;29120;52.006;6.020;2023-02-28T15:25:04;14.10;37.90
43524;DHT22;29120;52.006;6.020;2023-02-28T15:27:32;14.00;37.80
43524;DHT22;29120;52.006;6.020;2023-02-28T15:29:59;13.90;38.20
43524;DHT22;29120;52.006;6.020;2023-02-28T15:32:43;13.90;38.10
43524;DHT22;29120;52.006;6.020;2023-02-28T15:37:54;13.60;39.00
43524;DHT22;29120;52.006;6.020;2023-02-28T15:40:25;13.50;39.10
43524;DHT22;29120;52.006;6.020;2023-02-28T15:43:11;13.40;39.00
43524;DHT22;29120;52.006;6.020;2023-02-28T15:45:46;13.20;39.30
43524;DHT22;29120;52.006;6.020;2023-02-28T15:48:22;13.10;39.20
43524;DHT22;29120;52.006;6.020;2023-02-28T15:50:49;13.00;39.30
43524;DHT22;29120;52.006;6.020;2023-02-28T15:53:16;12.90;39.70
43524;DHT22;29120;52.006;6.020;2023-02-28T15:55:42;12.80;40.10
43524;DHT22;29120;52.006;6.020;2023-02-28T15:58:08;12.60;39.90
43524;DHT22;29120;52.006;6.020;2023-02-28T16:00:34;12.50;40.20
43524;DHT22;29120;52.006;6.020;2023-02-28T16:03:00;12.20;40.10
43524;DHT22;29120;52.006;6.020;2023-02-28T16:05:26;12.00;40.50
43524;DHT22;29120;52.006;6.020;2023-02-28T16:07:59;12.00;40.90
43524;DHT22;29120;52.006;6.020;2023-02-28T16:10:25;11.70;40.90
43524;DHT22;29120;52.006;6.020;2023-02-28T16:12:55;11.40;41.00
43524;DHT22;29120;52.006;6.020;2023-02-28T16:15:25;11.20;41.60
43524;DHT22;29120;52.006;6.020;2023-02-28T16:17:54;10.80;42.30
43524;DHT22;29120;52.006;6.020;2023-02-28T16:20:29;10.50;42.80
43524;DHT22;29120;52.006;6.020;2023-02-28T16:22:55;10.20;43.30
43524;DHT22;29120;52.006;6.020;2023-02-28T16:25:23;9.90;43.80
43524;DHT22;29120;52.006;6.020;2023-02-28T16:27:49;9.60;44.80
43524;DHT22;29120;52.006;6.020;2023-02-28T16:30:17;9.40;44.70
43524;DHT22;29120;52.006;6.020;2023-02-28T16:32:44;9.30;45.20
43524;DHT22;29120;52.006;6.020;2023-02-28T16:35:10;9.10;45.40
43524;DHT22;29120;52.006;6.020;2023-02-28T16:37:35;9.00;45.70
43524;DHT22;29120;52.006;6.020;2023-02-28T16:40:01;9.00;46.20
43524;DHT22;29120;52.006;6.020;2023-02-28T16:42:27;8.90;46.30
43524;DHT22;29120;52.006;6.020;2023-02-28T16:44:53;8.70;46.40
43524;DHT22;29120;52.006;6.020;2023-02-28T16:47:19;8.60;46.60
43524;DHT22;29120;52.006;6.020;2023-02-28T16:49:45;8.60;46.80
43524;DHT22;29120;52.006;6.020;2023-02-28T16:52:14;8.50;47.20
43524;DHT22;29120;52.006;6.020;2023-02-28T16:54:40;8.40;47.30
43524;DHT22;29120;52.006;6.020;2023-02-28T16:57:06;8.30;47.60
43524;DHT22;29120;52.006;6.020;2023-02-28T16:59:36;8.20;47.80
43524;DHT22;29120;52.006;6.020;2023-02-28T17:02:07;8.20;48.20
43524;DHT22;29120;52.006;6.020;2023-02-28T17:04:33;8.10;48.50
43524;DHT22;29120;52.006;6.020;2023-02-28T17:06:59;8.00;48.60
43524;DHT22;29120;52.006;6.020;2023-02-28T17:09:25;7.90;48.90
43524;DHT22;29120;52.006;6.020;2023-02-28T17:11:51;7.80;49.20
43524;DHT22;29120;52.006;6.020;2023-02-28T17:14:18;7.80;49.30
43524;DHT22;29120;52.006;6.020;2023-02-28T17:16:43;7.70;49.60
43524;DHT22;29120;52.006;6.020;2023-02-28T17:19:10;7.60;50.00
43524;DHT22;29120;52.006;6.020;2023-02-28T17:21:36;7.50;50.10
43524;DHT22;29120;52.006;6.020;2023-02-28T17:24:02;7.50;50.30
43524;DHT22;29120;52.006;6.020;2023-02-28T17:26:28;7.40;50.50
43524;DHT22;29120;52.006;6.020;2023-02-28T17:28:54;7.30;50.70
43524;DHT22;29120;52.006;6.020;2023-02-28T17:31:24;7.30;51.00
43524;DHT22;29120;52.006;6.020;2023-02-28T17:33:50;7.20;51.20
43524;DHT22;29120;52.006;6.020;2023-02-28T17:36:16;7.10;51.40